Portland International Airport
KPDX : now visible

Airfield :











YOU CAN JOIN US ON...

 
LOGIN :

Register | Disclaimer

   EN    FR    IT 

 









Legend :    VFR   Marginal VFR   IFR   Intensive IFR   Very Intensive IFR
Visi :
Ceiling :
>= 8 km
>= 3000ft
5 to 8 km
1000 to 3000 ft
1500m to 5 km
500 to 1000 ft
800 to 1500m
200 to 500 ft
< 800m
< 200 ft
Symbols :   Thunderstorms  Fog  Heavy snow  Heavy precipitations  Wind > 20 kt






- Airport Elevation : 31 ft
- IATA code : PDX


KPDX - Portland International

CURRENT METAR :
  • 031353Z 35003KT 10SM SCT150 BKN200 18/12 A3008 RMK AO2 SLP182 FU BKN200 ACC ALQDS T01830117

EXPIRED METARs :
  • 031253Z 33003KT 10SM FEW150 SCT200 18/12 A3006 RMK AO2 SLP178 FU SCT200 ACC N-E-S T01780117
  • 031153Z 33004KT 10SM FEW150 SCT180 18/12 A3006 RMK AO2 SLP176 FU SCT180 60000 T01830122 10250 20183 51005

TAF KPDX
Valid from the 03 at 12:00 until the 04 at 12:00 UTC


031121Z 0312/0412 32005KT P6SM SCT150
FM032200 31011KT P6SM SCT250
FM040800 32005KT P6SM SCT250
KZSE FIR / North America



MET'MAP, your aeronautical weather chart ! - Copyright ORBIFLY December 2007 - Disclaimer

ORBIFLY MET'MAP TEAM :

Programming & Development : Alexandra Zaïnal
Concept & original design : Baudouin d'Aumeries
Assistance for programming : Marc-Olivier Méhu
Technical & hardware support : Manuel Goepfert

Contact : metmap@orbifly.com




SOURCES & CREDITS :

   NOAA       Earth
Advisory